Time;durP1;ratioP1;P1;durP2;ratioP2;P2;SDS_P1;SDS_P2;PMS_P1;PMS_P2;Temp;Humidity;BMP_temperature;BMP_pressure;BME280_temperature;BME280_humidity;BME280_pressure;Samples;Min_cycle;Max_cycle;Signal;HPM_P1;HPM_P2
2024/03/13 00:01:02;;;;;;;7.00;5.10;;;12.20;99.90;;;;;;5073126;28;20279;-84
2024/03/13 00:03:28;;;;;;;10.10;5.50;;;12.20;99.90;;;;;;5073104;28;20193;-81
2024/03/13 00:05:55;;;;;;;8.97;5.40;;;12.20;99.90;;;;;;5073038;28;20177;-83
2024/03/13 00:08:22;;;;;;;7.53;5.13;;;12.30;99.90;;;;;;5071927;28;20261;-85
2024/03/13 00:10:50;;;;;;;5.20;4.50;;;12.10;99.90;;;;;;5074667;28;20172;-84
2024/03/13 00:13:16;;;;;;;6.87;5.50;;;12.20;99.90;;;;;;5073389;28;20181;-83
2024/03/13 00:15:42;;;;;;;6.77;5.77;;;12.20;99.90;;;;;;5073049;28;20200;-82
2024/03/13 00:18:08;;;;;;;7.40;5.20;;;12.20;99.90;;;;;;5074053;28;20579;-84
2024/03/13 00:20:34;;;;;;;7.83;5.13;;;12.10;99.90;;;;;;5071746;28;20179;-84
2024/03/13 00:23:01;;;;;;;8.37;5.00;;;12.10;99.90;;;;;;5073879;28;20579;-84
2024/03/13 00:25:27;;;;;;;7.37;5.10;;;12.10;99.90;;;;;;5073377;28;20169;-84
2024/03/13 00:27:55;;;;;;;7.30;4.83;;;12.10;99.90;;;;;;5073254;28;20699;-84
2024/03/13 00:30:22;;;;;;;8.27;5.57;;;12.20;99.90;;;;;;5074410;28;20536;-83
2024/03/13 00:32:52;;;;;;;9.13;5.00;;;12.10;99.90;;;;;;5072683;28;20230;-83
2024/03/13 00:35:18;;;;;;;9.90;5.30;;;12.10;99.90;;;;;;5073172;28;20520;-83
2024/03/13 00:37:44;;;;;;;6.70;5.03;;;12.20;99.90;;;;;;5072555;28;20203;-83
2024/03/13 00:40:11;;;;;;;7.97;5.00;;;12.20;99.90;;;;;;5073015;28;20176;-82
2024/03/13 00:42:37;;;;;;;8.80;5.67;;;12.20;99.90;;;;;;5073025;28;20207;-85
2024/03/13 00:45:03;;;;;;;6.60;4.83;;;12.30;99.90;;;;;;5071573;28;20629;-84
2024/03/13 00:47:29;;;;;;;9.93;5.97;;;12.30;99.90;;;;;;5072581;28;20180;-82
2024/03/13 00:49:55;;;;;;;10.63;5.90;;;12.30;99.90;;;;;;5073965;28;20165;-82
2024/03/13 00:52:21;;;;;;;8.43;5.90;;;12.30;99.90;;;;;;5072133;28;20178;-84
2024/03/13 00:54:47;;;;;;;8.63;5.23;;;12.20;99.90;;;;;;5072666;28;20234;-83
2024/03/13 00:57:15;;;;;;;7.73;5.73;;;12.20;99.90;;;;;;5073387;28;20664;-83
2024/03/13 00:59:40;;;;;;;9.87;5.90;;;12.10;99.90;;;;;;5071418;28;20176;-84
2024/03/13 01:02:10;;;;;;;10.47;6.20;;;12.10;99.90;;;;;;5073295;28;20180;-83
2024/03/13 01:04:36;;;;;;;9.63;6.30;;;12.00;99.90;;;;;;5072271;28;20634;-83
2024/03/13 01:07:04;;;;;;;10.50;6.97;;;12.00;99.90;;;;;;5082178;28;20172;-82
2024/03/13 01:09:30;;;;;;;10.30;6.67;;;12.10;99.90;;;;;;5093908;28;20225;-85
2024/03/13 01:11:56;;;;;;;11.10;7.13;;;12.10;99.90;;;;;;5092310;28;20176;-84
2024/03/13 01:14:22;;;;;;;13.27;7.23;;;12.10;99.90;;;;;;5092477;28;20172;-84
2024/03/13 01:16:53;;;;;;;11.47;7.43;;;12.10;99.90;;;;;;5091748;28;20755;-85
2024/03/13 01:19:22;;;;;;;10.13;7.17;;;12.10;99.90;;;;;;5092371;28;20532;-84
2024/03/13 01:21:53;;;;;;;10.33;6.90;;;12.10;99.90;;;;;;5092898;28;20631;-86
2024/03/13 01:24:19;;;;;;;9.60;7.10;;;12.10;99.90;;;;;;5092375;28;20168;-84
2024/03/13 01:26:45;;;;;;;14.47;8.03;;;12.10;99.90;;;;;;5091597;28;20183;-83
2024/03/13 01:29:12;;;;;;;11.23;7.73;;;12.10;99.90;;;;;;5093782;28;20240;-85
2024/03/13 01:31:38;;;;;;;14.20;7.63;;;12.10;99.90;;;;;;5092436;28;20184;-83
2024/03/13 01:34:04;;;;;;;14.23;8.47;;;12.20;99.90;;;;;;5092170;28;20177;-82
2024/03/13 01:39:17;;;;;;;12.43;7.10;;;12.20;99.90;;;;;;5092979;28;20396;-84
2024/03/13 01:55:40;;;;;;;10.87;6.40;;;12.20;99.90;;;;;;5093190;28;20202;-83
2024/03/13 02:03:17;;;;;;;12.07;5.53;;;12.20;99.90;;;;;;5093263;28;20596;-84
2024/03/13 02:05:44;;;;;;;10.57;5.50;;;12.10;99.90;;;;;;5092583;28;20180;-83
2024/03/13 02:08:14;;;;;;;10.97;5.13;;;12.10;99.90;;;;;;5091582;28;20178;-84
2024/03/13 02:10:40;;;;;;;12.20;5.03;;;12.10;99.90;;;;;;5092488;28;20183;-83
2024/03/13 02:13:10;;;;;;;8.80;4.13;;;12.10;99.90;;;;;;5096763;28;20166;-83
2024/03/13 02:15:39;;;;;;;11.27;4.80;;;12.10;99.90;;;;;;5095418;28;20262;-83
2024/03/13 02:18:24;;;;;;;9.57;4.23;;;12.10;99.90;;;;;;5095595;28;20271;-81
2024/03/13 02:20:52;;;;;;;12.90;5.20;;;12.10;99.90;;;;;;5096480;28;20180;-84
2024/03/13 02:23:24;;;;;;;8.33;4.20;;;12.20;99.90;;;;;;5095459;28;20580;-83
2024/03/13 02:25:54;;;;;;;9.07;4.27;;;12.00;99.90;;;;;;5094729;28;20257;-84
2024/03/13 02:28:37;;;;;;;9.73;4.57;;;12.00;99.90;;;;;;5095413;28;20187;-85
2024/03/13 02:31:06;;;;;;;9.40;4.50;;;12.10;99.90;;;;;;5095612;28;20275;-85
2024/03/13 02:33:32;;;;;;;9.57;3.93;;;12.10;99.90;;;;;;5095033;28;20186;-82
2024/03/13 02:35:59;;;;;;;7.37;4.00;;;12.10;99.90;;;;;;5095652;28;20235;-84
2024/03/13 02:38:24;;;;;;;7.57;4.23;;;12.00;99.90;;;;;;5094713;28;20199;-85
2024/03/13 02:40:50;;;;;;;7.00;3.90;;;12.00;99.90;;;;;;5095497;28;20317;-83
2024/03/13 02:43:16;;;;;;;9.10;3.83;;;12.10;99.90;;;;;;5094731;28;20891;-84
2024/03/13 02:45:42;;;;;;;8.00;4.03;;;12.00;99.90;;;;;;5096199;28;20708;-83
2024/03/13 02:48:08;;;;;;;9.50;3.90;;;12.10;99.90;;;;;;5096302;28;20168;-84
2024/03/13 02:50:35;;;;;;;7.70;3.40;;;11.90;99.90;;;;;;5095132;28;20562;-83
2024/03/13 02:53:01;;;;;;;9.80;4.20;;;12.00;99.90;;;;;;5096516;28;20648;-84
2024/03/13 02:55:26;;;;;;;7.10;3.80;;;12.00;99.90;;;;;;5095081;28;20191;-83
2024/03/13 02:57:52;;;;;;;5.83;3.13;;;12.00;99.90;;;;;;5095964;28;20180;-85
2024/03/13 03:00:18;;;;;;;9.33;4.33;;;12.00;99.90;;;;;;5095185;28;20171;-85
2024/03/13 03:02:44;;;;;;;8.07;3.77;;;12.00;99.90;;;;;;5094081;28;20196;-85
2024/03/13 03:05:10;;;;;;;8.83;3.80;;;12.00;99.90;;;;;;5095871;28;20199;-83
2024/03/13 03:07:36;;;;;;;9.20;3.57;;;12.10;99.90;;;;;;5094592;28;20728;-84
2024/03/13 03:10:02;;;;;;;7.60;3.33;;;12.20;99.90;;;;;;5094597;28;20168;-85
2024/03/13 03:12:28;;;;;;;6.73;3.20;;;12.20;99.90;;;;;;5093964;28;20172;-83
2024/03/13 03:14:59;;;;;;;10.17;3.53;;;12.20;99.90;;;;;;5095232;28;20173;-83
2024/03/13 03:17:24;;;;;;;9.40;3.50;;;12.10;99.90;;;;;;5095192;28;20308;-84
2024/03/13 03:19:50;;;;;;;6.60;3.07;;;12.20;99.90;;;;;;5096069;28;20616;-83
2024/03/13 03:22:17;;;;;;;8.30;3.23;;;12.20;99.90;;;;;;5093852;28;20168;-85
2024/03/13 03:24:43;;;;;;;10.63;3.10;;;12.10;99.90;;;;;;5093570;28;20171;-83
2024/03/13 03:27:09;;;;;;;8.03;3.30;;;12.10;99.90;;;;;;5093843;28;20180;-84
2024/03/13 03:29:36;;;;;;;9.90;3.63;;;12.10;99.90;;;;;;5094337;28;20270;-85
2024/03/13 03:32:01;;;;;;;10.03;3.93;;;12.10;99.90;;;;;;5094603;28;20626;-84
2024/03/13 03:34:27;;;;;;;6.97;3.30;;;12.10;99.90;;;;;;5094158;28;20271;-85
2024/03/13 03:36:55;;;;;;;7.83;3.60;;;12.10;99.90;;;;;;5093522;28;20248;-85
2024/03/13 03:39:24;;;;;;;7.77;3.37;;;12.00;99.90;;;;;;5093865;28;20621;-85
2024/03/13 03:41:53;;;;;;;6.73;3.37;;;12.00;99.90;;;;;;5094512;28;20185;-84
2024/03/13 03:44:19;;;;;;;7.77;3.83;;;12.00;99.90;;;;;;5095290;28;20679;-84
2024/03/13 03:46:45;;;;;;;8.53;3.77;;;12.00;99.90;;;;;;5094287;28;20269;-85
2024/03/13 03:49:10;;;;;;;9.83;3.47;;;12.10;99.90;;;;;;5094058;28;20336;-85
2024/03/13 03:51:37;;;;;;;9.63;3.43;;;12.00;99.90;;;;;;5094364;28;20519;-86
2024/03/13 03:54:03;;;;;;;7.53;3.57;;;12.10;99.90;;;;;;5094001;28;20648;-85
2024/03/13 03:56:28;;;;;;;7.93;3.50;;;12.20;99.90;;;;;;5093651;28;20290;-85
2024/03/13 03:59:09;;;;;;;9.27;3.33;;;12.20;99.90;;;;;;5094126;28;20174;-86
2024/03/13 04:01:36;;;;;;;5.37;3.20;;;12.20;99.90;;;;;;5093821;28;20185;-82
2024/03/13 04:04:05;;;;;;;6.20;3.20;;;12.20;99.90;;;;;;5094359;28;20262;-82
2024/03/13 04:06:31;;;;;;;7.57;2.90;;;12.30;99.90;;;;;;5093715;28;20169;-86
2024/03/13 04:08:57;;;;;;;6.43;2.27;;;12.30;99.90;;;;;;5093567;28;20169;-85
2024/03/13 04:11:23;;;;;;;9.77;3.30;;;12.40;99.90;;;;;;5093343;28;20643;-85
2024/03/13 04:13:53;;;;;;;6.37;2.77;;;12.40;99.90;;;;;;5093913;28;20161;-84
2024/03/13 04:16:20;;;;;;;7.57;3.20;;;12.30;99.90;;;;;;5093380;28;20690;-85
2024/03/13 04:18:46;;;;;;;5.63;2.40;;;12.20;99.90;;;;;;5094862;28;20164;-83
2024/03/13 04:21:13;;;;;;;8.07;3.23;;;12.20;99.90;;;;;;5094501;28;20225;-85
2024/03/13 04:23:39;;;;;;;7.93;2.83;;;12.30;99.90;;;;;;5093050;28;20176;-83
2024/03/13 04:26:05;;;;;;;6.83;3.00;;;12.20;99.90;;;;;;5092411;28;20163;-85
2024/03/13 04:28:32;;;;;;;10.17;3.47;;;12.20;99.90;;;;;;5093305;28;20244;-83
2024/03/13 04:30:58;;;;;;;7.87;4.07;;;12.20;99.90;;;;;;5093327;28;20175;-84
2024/03/13 04:33:24;;;;;;;7.23;3.10;;;12.30;99.90;;;;;;5092831;28;20179;-84
2024/03/13 04:35:49;;;;;;;9.17;3.67;;;12.10;99.90;;;;;;5092693;28;20226;-83
2024/03/13 04:38:15;;;;;;;5.57;3.50;;;12.10;99.90;;;;;;5093814;28;20196;-83
2024/03/13 04:40:44;;;;;;;8.97;4.00;;;12.10;99.90;;;;;;5092849;28;20651;-85
2024/03/13 04:43:10;;;;;;;7.80;4.17;;;12.10;99.90;;;;;;5091970;28;20276;-84
2024/03/13 04:45:38;;;;;;;10.70;4.20;;;12.20;99.90;;;;;;5092702;28;20211;-84
2024/03/13 04:48:07;;;;;;;9.07;4.50;;;12.10;99.90;;;;;;5092810;28;20173;-84
2024/03/13 04:50:34;;;;;;;8.77;3.53;;;12.10;99.90;;;;;;5092892;28;20223;-86
2024/03/13 04:53:00;;;;;;;8.03;4.17;;;12.10;99.90;;;;;;5092174;28;20182;-85
2024/03/13 04:55:29;;;;;;;6.90;4.20;;;12.00;99.90;;;;;;5091530;28;20230;-85
2024/03/13 04:57:55;;;;;;;8.77;4.23;;;12.00;99.90;;;;;;5093627;28;20541;-84
2024/03/13 05:00:21;;;;;;;8.83;3.97;;;12.00;99.90;;;;;;5092983;28;20214;-84
2024/03/13 05:02:47;;;;;;;8.23;4.17;;;12.00;99.90;;;;;;5093372;28;20219;-84
2024/03/13 05:05:12;;;;;;;10.50;4.07;;;12.00;99.90;;;;;;5092272;28;20172;-81
2024/03/13 05:07:42;;;;;;;8.20;3.90;;;12.00;99.90;;;;;;5092573;28;20176;-82
2024/03/13 05:10:09;;;;;;;6.93;3.50;;;12.00;99.90;;;;;;5091545;28;20164;-83
2024/03/13 05:12:38;;;;;;;9.53;4.60;;;12.00;99.90;;;;;;5091969;28;20171;-86
2024/03/13 05:15:05;;;;;;;8.87;4.03;;;12.00;99.90;;;;;;5092257;28;20665;-84
2024/03/13 05:17:31;;;;;;;10.23;4.17;;;12.10;99.90;;;;;;5092323;28;20203;-84
2024/03/13 05:19:58;;;;;;;8.33;3.70;;;12.10;99.90;;;;;;5092358;28;20222;-87
2024/03/13 05:22:29;;;;;;;9.23;4.00;;;11.90;99.90;;;;;;5092028;28;20174;-85
2024/03/13 05:24:55;;;;;;;12.37;4.13;;;12.00;99.90;;;;;;5090785;28;20595;-85
2024/03/13 05:27:21;;;;;;;8.60;4.47;;;12.00;99.90;;;;;;5090968;28;20173;-83
2024/03/13 05:29:47;;;;;;;8.73;4.70;;;12.10;99.90;;;;;;5091981;28;20168;-84
2024/03/13 05:32:13;;;;;;;11.47;4.50;;;12.10;99.90;;;;;;5091384;28;20186;-83
2024/03/13 05:34:38;;;;;;;9.47;4.87;;;12.00;99.90;;;;;;5091978;28;20178;-84
2024/03/13 05:37:07;;;;;;;8.47;4.43;;;12.00;99.90;;;;;;5090974;28;20593;-83
2024/03/13 05:39:34;;;;;;;11.33;4.50;;;12.00;99.90;;;;;;5091026;28;20287;-84
2024/03/13 05:42:00;;;;;;;8.47;5.00;;;12.10;99.90;;;;;;5090833;28;20228;-85
2024/03/13 05:44:27;;;;;;;11.83;5.07;;;12.00;99.90;;;;;;5091941;28;20175;-85
2024/03/13 05:46:53;;;;;;;9.87;4.83;;;11.90;99.90;;;;;;5091542;28;20200;-83
2024/03/13 05:49:18;;;;;;;11.80;4.53;;;12.00;99.90;;;;;;5092198;28;20649;-84
2024/03/13 05:51:44;;;;;;;12.03;4.77;;;12.00;99.90;;;;;;5091646;28;20173;-86
2024/03/13 05:54:10;;;;;;;7.80;4.83;;;12.00;99.90;;;;;;5091466;28;20668;-83
2024/03/13 05:56:37;;;;;;;8.20;4.17;;;12.00;99.90;;;;;;5091532;28;20572;-85
2024/03/13 05:59:03;;;;;;;10.50;4.90;;;12.10;99.90;;;;;;5093900;28;20612;-84
2024/03/13 06:01:29;;;;;;;8.27;5.03;;;12.00;99.90;;;;;;5094162;28;20581;-84
2024/03/13 06:03:56;;;;;;;9.13;5.07;;;12.00;99.90;;;;;;5093709;28;20225;-86
2024/03/13 06:06:22;;;;;;;9.93;5.37;;;12.00;99.90;;;;;;5093216;28;20301;-83
2024/03/13 06:08:49;;;;;;;14.43;6.20;;;12.00;99.90;;;;;;5096800;28;20174;-82
2024/03/13 06:11:18;;;;;;;9.20;5.87;;;12.00;99.90;;;;;;5106667;28;20214;-84
2024/03/13 06:13:46;;;;;;;11.73;5.57;;;11.90;99.90;;;;;;5092895;28;20163;-84
2024/03/13 06:16:15;;;;;;;10.87;6.47;;;11.80;99.90;;;;;;5091729;28;20207;-84
2024/03/13 06:18:41;;;;;;;9.93;6.33;;;11.80;99.90;;;;;;5092231;28;20183;-84
2024/03/13 06:21:10;;;;;;;11.07;7.03;;;11.90;99.90;;;;;;5090947;28;20511;-83
2024/03/13 06:23:37;;;;;;;10.40;6.93;;;11.90;99.90;;;;;;5091008;28;20201;-83
2024/03/13 06:26:07;;;;;;;12.13;7.57;;;11.90;99.90;;;;;;5090918;28;20172;-83
2024/03/13 06:31:17;;;;;;;15.20;8.10;;;11.80;99.90;;;;;;5091821;28;20241;-84
2024/03/13 06:33:43;;;;;;;13.00;8.33;;;11.70;99.90;;;;;;5090626;28;20175;-85
2024/03/13 06:36:10;;;;;;;13.00;7.87;;;11.80;99.90;;;;;;5087352;28;20261;-85
2024/03/13 06:38:36;;;;;;;13.27;7.80;;;11.90;99.90;;;;;;5074320;28;20204;-86
2024/03/13 06:41:02;;;;;;;13.57;8.47;;;12.00;99.90;;;;;;5090205;28;20184;-83
2024/03/13 06:43:28;;;;;;;13.80;8.17;;;11.90;99.90;;;;;;5091807;28;20260;-84
2024/03/13 06:45:53;;;;;;;12.23;8.40;;;11.90;99.90;;;;;;5089974;28;20254;-84
2024/03/13 06:48:19;;;;;;;16.37;9.07;;;11.90;99.90;;;;;;5089948;28;20169;-84
2024/03/13 06:50:45;;;;;;;13.30;8.40;;;11.90;99.90;;;;;;5090485;28;20210;-88
2024/03/13 06:53:10;;;;;;;14.67;8.87;;;11.80;99.90;;;;;;5090245;28;20645;-84
2024/03/13 06:55:37;;;;;;;14.33;9.20;;;11.80;99.90;;;;;;5091296;28;20168;-86
2024/03/13 06:58:04;;;;;;;12.70;8.80;;;11.80;99.90;;;;;;5091366;28;20222;-85
2024/03/13 07:00:32;;;;;;;13.97;7.90;;;11.80;99.90;;;;;;5094075;28;20740;-87
2024/03/13 07:03:03;;;;;;;14.27;8.83;;;11.80;99.90;;;;;;5090631;28;20217;-82
2024/03/13 07:05:29;;;;;;;12.17;8.20;;;11.80;99.90;;;;;;5093860;28;20222;-85
2024/03/13 07:07:56;;;;;;;12.20;7.60;;;11.70;99.90;;;;;;5094909;28;20550;-82
2024/03/13 07:10:21;;;;;;;13.23;7.50;;;11.80;99.90;;;;;;5093941;28;20175;-84
2024/03/13 07:12:48;;;;;;;12.10;6.53;;;11.90;99.90;;;;;;5093611;28;20177;-85
2024/03/13 07:15:15;;;;;;;11.23;7.10;;;11.90;99.90;;;;;;5094641;28;20259;-83
2024/03/13 07:17:42;;;;;;;13.77;7.27;;;11.90;99.90;;;;;;5093422;28;20218;-83
2024/03/13 07:20:09;;;;;;;10.33;6.83;;;11.90;99.90;;;;;;5093012;28;20157;-83
2024/03/13 07:22:37;;;;;;;10.60;6.70;;;11.90;99.90;;;;;;5094903;28;20179;-83
2024/03/13 07:25:06;;;;;;;10.97;6.87;;;12.00;99.90;;;;;;5095999;28;20231;-83
2024/03/13 07:27:32;;;;;;;8.43;6.23;;;12.10;99.90;;;;;;5094610;28;20179;-85
2024/03/13 07:29:58;;;;;;;10.37;6.10;;;12.00;99.90;;;;;;5097688;28;20193;-85
2024/03/13 07:32:24;;;;;;;8.67;6.20;;;12.00;99.90;;;;;;5096377;28;20567;-83
2024/03/13 07:34:49;;;;;;;8.57;6.40;;;12.00;99.90;;;;;;5094412;28;20181;-85
2024/03/13 07:37:15;;;;;;;9.33;5.53;;;12.20;99.90;;;;;;5092309;28;20207;-84
2024/03/13 07:39:41;;;;;;;9.37;6.10;;;12.30;99.90;;;;;;5093221;28;20192;-84
2024/03/13 07:42:07;;;;;;;7.33;4.63;;;12.30;99.90;;;;;;5092998;28;20178;-85
2024/03/13 07:44:33;;;;;;;7.13;3.97;;;12.30;99.90;;;;;;5093135;28;20167;-86
2024/03/13 07:46:58;;;;;;;7.30;3.70;;;12.20;99.90;;;;;;5093728;28;20179;-87
2024/03/13 07:49:25;;;;;;;7.53;4.10;;;12.20;99.90;;;;;;5073650;28;20173;-84
2024/03/13 07:51:54;;;;;;;7.17;3.60;;;12.20;99.90;;;;;;5080825;28;20198;-87
2024/03/13 07:54:22;;;;;;;7.30;3.67;;;12.30;99.90;;;;;;5094058;28;20240;-86
2024/03/13 07:56:48;;;;;;;4.80;3.23;;;12.40;99.90;;;;;;5093917;28;20308;-86
2024/03/13 07:59:14;;;;;;;5.20;3.50;;;12.50;99.90;;;;;;5095109;28;20628;-86
2024/03/13 08:01:43;;;;;;;7.30;3.57;;;12.40;99.90;;;;;;5093188;28;20181;-85
2024/03/13 08:04:09;;;;;;;9.77;4.27;;;12.40;99.90;;;;;;5093759;28;20274;-83
2024/03/13 08:06:40;;;;;;;5.00;4.10;;;12.40;99.90;;;;;;5094645;28;20210;-85
2024/03/13 08:09:06;;;;;;;9.70;4.80;;;12.40;99.90;;;;;;5093562;28;20625;-88
2024/03/13 08:11:32;;;;;;;10.23;5.27;;;12.50;99.90;;;;;;5093709;28;20178;-86
2024/03/13 08:14:01;;;;;;;8.73;5.17;;;12.40;99.90;;;;;;5094677;28;20580;-85
2024/03/13 08:16:27;;;;;;;10.33;5.50;;;12.30;99.90;;;;;;5093105;28;20210;-88
2024/03/13 08:18:52;;;;;;;8.40;5.13;;;12.40;99.90;;;;;;5093832;28;20189;-90
2024/03/13 08:21:18;;;;;;;10.13;5.33;;;12.50;99.90;;;;;;5094292;28;20165;-89
2024/03/13 08:23:47;;;;;;;8.07;5.03;;;12.60;99.90;;;;;;5093134;28;20268;-88
2024/03/13 08:26:13;;;;;;;9.63;5.30;;;12.50;99.90;;;;;;5092964;28;20586;-88
2024/03/13 08:28:40;;;;;;;8.13;4.70;;;12.50;99.90;;;;;;5093359;28;20189;-89
2024/03/13 08:31:06;;;;;;;6.90;4.60;;;12.50;99.90;;;;;;5092761;28;20233;-86
2024/03/13 08:33:32;;;;;;;7.07;4.17;;;12.60;99.90;;;;;;5093430;28;20188;-86
2024/03/13 08:36:02;;;;;;;8.43;3.57;;;12.60;99.90;;;;;;5092760;28;20199;-86
2024/03/13 08:38:28;;;;;;;7.90;4.07;;;12.40;99.90;;;;;;5094338;28;20644;-85
2024/03/13 08:40:54;;;;;;;8.47;4.50;;;12.40;99.90;;;;;;5093204;28;20221;-88
2024/03/13 08:43:21;;;;;;;6.90;4.60;;;12.50;99.90;;;;;;5092817;28;20289;-86
2024/03/13 08:45:47;;;;;;;9.90;4.53;;;12.50;99.90;;;;;;5091856;28;20573;-87
2024/03/13 08:48:13;;;;;;;7.90;3.73;;;12.50;99.90;;;;;;5093549;28;20224;-88
2024/03/13 08:50:40;;;;;;;7.70;4.07;;;12.50;99.90;;;;;;5092770;28;20183;-85
2024/03/13 08:53:06;;;;;;;8.53;4.17;;;12.70;99.90;;;;;;5090847;28;20181;-86
2024/03/13 08:55:34;;;;;;;10.50;4.20;;;12.70;99.90;;;;;;5092283;28;20674;-86
2024/03/13 08:58:03;;;;;;;7.93;4.67;;;12.70;99.90;;;;;;5091879;28;20211;-88
2024/03/13 09:00:30;;;;;;;10.07;5.17;;;12.70;99.90;;;;;;5091884;28;20195;-85
2024/03/13 09:02:59;;;;;;;8.23;5.30;;;12.70;99.90;;;;;;5091571;28;20279;-85
2024/03/13 09:05:25;;;;;;;8.30;4.80;;;12.70;99.90;;;;;;5087193;28;20176;-85
2024/03/13 09:07:51;;;;;;;6.80;4.27;;;13.00;99.90;;;;;;5091777;28;20186;-84
2024/03/13 09:10:18;;;;;;;6.97;4.07;;;13.40;99.90;;;;;;5090896;28;20168;-84
2024/03/13 09:12:47;;;;;;;7.03;5.03;;;13.50;99.90;;;;;;5092693;28;20224;-83
2024/03/13 09:15:16;;;;;;;10.53;5.03;;;13.60;99.90;;;;;;5094775;28;20176;-83
2024/03/13 09:17:42;;;;;;;7.57;4.80;;;13.60;99.90;;;;;;5100065;28;20207;-83
2024/03/13 09:20:08;;;;;;;9.87;4.50;;;13.70;99.90;;;;;;5090545;28;20278;-84
2024/03/13 09:22:34;;;;;;;7.03;4.17;;;13.80;99.90;;;;;;5090767;28;20211;-82
2024/03/13 09:24:59;;;;;;;7.07;4.23;;;13.80;99.90;;;;;;5092385;28;20260;-81
2024/03/13 09:27:25;;;;;;;8.57;4.23;;;13.80;99.90;;;;;;5092355;28;20229;-83
2024/03/13 09:29:51;;;;;;;7.50;4.33;;;13.80;99.90;;;;;;5090942;28;20621;-80
2024/03/13 09:32:21;;;;;;;6.90;4.23;;;13.80;99.90;;;;;;5092561;28;20236;-81
2024/03/13 09:34:47;;;;;;;8.43;4.37;;;13.90;99.90;;;;;;5092478;28;20219;-85
2024/03/13 09:37:15;;;;;;;7.13;4.17;;;14.00;99.90;;;;;;5090936;28;20215;-81
2024/03/13 09:39:41;;;;;;;8.60;4.10;;;14.00;99.90;;;;;;5091783;28;20549;-92
2024/03/13 09:42:16;;;;;;;10.47;3.50;;;13.90;99.90;;;;;;5092999;28;20174;-91
2024/03/13 09:44:47;;;;;;;7.77;3.40;;;13.80;99.90;;;;;;5092767;28;20178;-91
2024/03/13 09:47:14;;;;;;;6.60;3.30;;;13.80;99.90;;;;;;5092812;28;20182;-89
2024/03/13 09:49:43;;;;;;;5.07;2.90;;;13.70;99.90;;;;;;5091230;28;20634;-86
2024/03/13 09:52:15;;;;;;;5.93;3.43;;;13.70;99.90;;;;;;5091857;28;20256;-86
2024/03/13 09:54:45;;;;;;;6.27;3.40;;;13.70;99.90;;;;;;5091588;28;20206;-81
2024/03/13 09:57:11;;;;;;;4.63;3.20;;;13.90;99.90;;;;;;5088073;28;20702;-81
2024/03/13 09:59:38;;;;;;;6.93;3.50;;;13.90;99.90;;;;;;5084220;28;20182;-86
2024/03/13 10:02:12;;;;;;;4.73;3.00;;;14.00;99.90;;;;;;5091079;28;20615;-85
2024/03/13 10:04:39;;;;;;;5.63;3.80;;;13.80;99.90;;;;;;5093070;28;20176;-85
2024/03/13 10:07:04;;;;;;;8.40;4.07;;;13.80;99.90;;;;;;5090619;28;20177;-84
2024/03/13 10:09:35;;;;;;;7.63;4.10;;;13.80;99.90;;;;;;5091022;28;20182;-85
2024/03/13 10:12:08;;;;;;;6.93;3.73;;;13.80;99.90;;;;;;5091456;28;20194;-85
2024/03/13 10:14:35;;;;;;;6.13;3.97;;;13.80;99.90;;;;;;5091308;28;20183;-85
2024/03/13 10:17:04;;;;;;;5.40;3.90;;;13.80;99.90;;;;;;5091259;28;20240;-85
2024/03/13 10:19:36;;;;;;;5.57;3.90;;;13.70;99.90;;;;;;5092208;28;20245;-86
2024/03/13 10:22:02;;;;;;;6.10;3.93;;;13.60;99.90;;;;;;5091455;28;20201;-85
2024/03/13 10:24:31;;;;;;;6.73;4.80;;;13.60;99.90;;;;;;5091060;28;20178;-85
2024/03/13 10:26:57;;;;;;;6.73;4.37;;;13.50;99.90;;;;;;5092240;28;20166;-85
2024/03/13 10:29:23;;;;;;;6.93;5.00;;;13.50;99.90;;;;;;5091055;28;20537;-85
2024/03/13 10:31:51;;;;;;;8.07;5.10;;;13.40;99.90;;;;;;5092009;28;20259;-85
2024/03/13 10:34:18;;;;;;;6.37;4.57;;;13.50;99.90;;;;;;5095369;28;20539;-87
2024/03/13 10:36:44;;;;;;;7.30;4.10;;;13.40;99.90;;;;;;5095073;28;20707;-86
2024/03/13 10:39:11;;;;;;;6.87;3.77;;;13.30;99.90;;;;;;5095135;28;20681;-84
2024/03/13 10:41:37;;;;;;;5.23;4.10;;;13.30;99.90;;;;;;5095045;28;20185;-86
2024/03/13 10:44:03;;;;;;;5.30;3.70;;;13.40;99.90;;;;;;5096284;28;20543;-84
2024/03/13 10:46:32;;;;;;;6.23;3.47;;;13.40;99.90;;;;;;5094748;28;20651;-86
2024/03/13 10:48:59;;;;;;;4.83;3.37;;;13.40;99.90;;;;;;5095189;28;20174;-86
2024/03/13 10:51:30;;;;;;;4.60;3.20;;;13.40;99.90;;;;;;5095440;28;20220;-86
2024/03/13 10:53:55;;;;;;;5.10;3.37;;;13.50;99.90;;;;;;5096463;28;20166;-87
2024/03/13 10:56:21;;;;;;;4.90;3.63;;;13.60;99.90;;;;;;5096126;28;20561;-86
2024/03/13 10:58:47;;;;;;;5.07;3.50;;;13.60;99.90;;;;;;5094637;28;20336;-85
2024/03/13 11:01:16;;;;;;;4.80;3.53;;;13.50;99.90;;;;;;5094747;28;20173;-86
2024/03/13 11:03:46;;;;;;;5.97;4.00;;;13.60;99.90;;;;;;5094951;28;20188;-85
2024/03/13 11:06:15;;;;;;;4.63;3.67;;;13.50;99.90;;;;;;5095332;28;20189;-85
2024/03/13 11:08:41;;;;;;;7.07;4.40;;;13.40;99.90;;;;;;5094902;28;20181;-86
2024/03/13 11:11:13;;;;;;;6.17;3.80;;;13.40;99.90;;;;;;5094966;28;20171;-86
2024/03/13 11:13:50;;;;;;;5.20;3.50;;;13.30;99.90;;;;;;5077989;28;20198;-85
2024/03/13 11:16:19;;;;;;;3.73;3.07;;;13.30;99.90;;;;;;5094629;28;20201;-87
2024/03/13 11:18:46;;;;;;;3.00;2.30;;;13.30;99.90;;;;;;5094575;28;20238;-86
2024/03/13 11:21:35;;;;;;;3.73;2.47;;;13.40;99.90;;;;;;5094980;28;20527;-85
2024/03/13 11:24:07;;;;;;;4.57;1.87;;;13.40;99.90;;;;;;5096947;28;20170;-86
2024/03/13 11:26:37;;;;;;;3.10;1.87;;;13.50;99.90;;;;;;5094621;28;20174;-85
2024/03/13 11:29:06;;;;;;;5.07;2.07;;;13.60;99.90;;;;;;5094659;28;20404;-85
2024/03/13 11:31:33;;;;;;;2.90;1.97;;;13.60;99.90;;;;;;5093758;28;20584;-87
2024/03/13 11:34:01;;;;;;;4.47;2.20;;;13.80;99.90;;;;;;5094162;28;20209;-86
2024/03/13 11:36:28;;;;;;;2.67;1.70;;;13.80;99.90;;;;;;5095357;28;20700;-86
2024/03/13 11:38:54;;;;;;;4.63;2.50;;;13.90;99.90;;;;;;5093803;28;20192;-86
2024/03/13 11:41:20;;;;;;;3.03;2.00;;;13.90;99.90;;;;;;5093655;28;20275;-85
2024/03/13 11:43:46;;;;;;;3.13;2.53;;;13.80;99.90;;;;;;5093412;28;20177;-86
2024/03/13 11:46:13;;;;;;;3.73;2.30;;;13.70;99.90;;;;;;5093610;28;20738;-86
2024/03/13 11:48:41;;;;;;;2.30;1.83;;;13.70;99.90;;;;;;5094006;28;20230;-87
2024/03/13 11:51:07;;;;;;;5.07;1.93;;;13.70;99.90;;;;;;5093880;28;20241;-86
2024/03/13 11:53:40;;;;;;;2.90;1.40;;;13.70;99.90;;;;;;5094146;28;20237;-86
2024/03/13 11:56:14;;;;;;;2.97;1.40;;;13.80;99.90;;;;;;5093979;28;20298;-86
2024/03/13 11:58:41;;;;;;;2.13;1.27;;;13.80;99.90;;;;;;5094442;28;20181;-85
2024/03/13 12:01:12;;;;;;;2.63;1.10;;;13.70;99.90;;;;;;5093843;28;20825;-86
2024/03/13 12:03:58;;;;;;;2.17;1.10;;;13.70;99.90;;;;;;5093709;28;20202;-85
2024/03/13 12:06:24;;;;;;;2.93;1.17;;;13.70;99.90;;;;;;5093964;28;20277;-87
2024/03/13 12:08:52;;;;;;;1.97;1.27;;;13.60;99.90;;;;;;5093519;28;20251;-85
2024/03/13 12:11:27;;;;;;;3.10;1.33;;;13.70;99.90;;;;;;5093218;28;20585;-86
2024/03/13 12:13:54;;;;;;;2.83;1.33;;;13.80;99.90;;;;;;5093833;28;20195;-86
2024/03/13 12:16:22;;;;;;;2.63;1.40;;;13.80;99.90;;;;;;5093814;28;20188;-86
2024/03/13 12:18:52;;;;;;;3.13;1.10;;;14.00;99.90;;;;;;5093086;28;20183;-86
2024/03/13 12:21:19;;;;;;;1.90;1.10;;;13.90;99.90;;;;;;5092106;28;20322;-85
2024/03/13 12:23:45;;;;;;;2.53;1.23;;;13.80;99.90;;;;;;5090764;28;20205;-86
2024/03/13 12:26:11;;;;;;;2.33;1.23;;;13.80;99.90;;;;;;5093939;28;20165;-86
2024/03/13 12:28:37;;;;;;;1.63;0.90;;;13.80;99.90;;;;;;5093203;28;20175;-87
2024/03/13 12:31:04;;;;;;;1.57;1.10;;;14.00;99.90;;;;;;5093304;28;20171;-86
2024/03/13 12:33:32;;;;;;;3.03;1.47;;;14.10;99.90;;;;;;5097423;28;20171;-87
2024/03/13 12:35:59;;;;;;;2.27;1.40;;;13.80;99.90;;;;;;5095382;28;20179;-86
2024/03/13 12:38:40;;;;;;;3.43;1.50;;;13.90;99.90;;;;;;5093988;28;20205;-86
2024/03/13 12:41:08;;;;;;;3.10;1.30;;;13.80;99.90;;;;;;5093181;28;20249;-85
2024/03/13 12:43:35;;;;;;;2.60;1.30;;;13.90;99.90;;;;;;5106383;28;20176;-83
2024/03/13 12:46:03;;;;;;;2.20;1.40;;;14.00;99.90;;;;;;5096143;28;20164;-85
2024/03/13 12:48:33;;;;;;;2.60;1.37;;;14.00;99.90;;;;;;5092670;28;20184;-84
2024/03/13 12:51:02;;;;;;;1.67;1.30;;;14.10;99.90;;;;;;5092419;28;20182;-84
2024/03/13 12:53:41;;;;;;;2.10;1.30;;;13.90;99.90;;;;;;5092835;28;20232;-86
2024/03/13 12:56:29;;;;;;;4.37;1.20;;;13.90;99.90;;;;;;5091418;28;20428;-86
2024/03/13 12:58:57;;;;;;;1.70;1.20;;;14.00;99.90;;;;;;5093199;28;20164;-85
2024/03/13 13:01:30;;;;;;;2.93;1.30;;;14.00;99.90;;;;;;5092005;28;20236;-86
2024/03/13 13:03:56;;;;;;;1.83;1.20;;;14.00;99.90;;;;;;5093766;28;20738;-87
2024/03/13 13:06:22;;;;;;;2.50;1.10;;;14.00;99.90;;;;;;5092092;28;20171;-85
2024/03/13 13:08:51;;;;;;;3.07;1.40;;;14.00;99.90;;;;;;5091925;28;20537;-85
2024/03/13 13:11:19;;;;;;;3.23;1.30;;;13.90;99.90;;;;;;5092497;28;20174;-85